createdAt,value
2023-05-20T00:05:59.083Z,1.83
2023-05-20T00:16:34.284Z,1.90
2023-05-20T00:27:09.434Z,1.90
2023-05-20T00:37:44.671Z,2.28
2023-05-20T00:48:22.076Z,1.90
2023-05-20T00:58:57.965Z,1.77
2023-05-20T01:09:33.921Z,2.13
2023-05-20T01:20:10.643Z,2.25
2023-05-20T01:30:51.220Z,1.90
2023-05-20T01:41:27.456Z,2.00
2023-05-20T01:52:02.127Z,1.83
2023-05-20T02:02:37.544Z,1.80
2023-05-20T02:13:13.089Z,2.22
2023-05-20T02:23:48.270Z,2.28
2023-05-20T02:34:23.066Z,2.10
2023-05-20T02:44:59.057Z,2.28
2023-05-20T02:55:37.566Z,2.53
2023-05-20T03:06:12.723Z,2.27
2023-05-20T03:16:47.825Z,1.90
2023-05-20T03:27:23.018Z,2.40
2023-05-20T03:37:59.864Z,1.85
2023-05-20T03:48:35.586Z,2.78
2023-05-20T03:59:11.793Z,2.35
2023-05-20T04:09:46.993Z,2.70
2023-05-20T04:20:21.922Z,2.83
2023-05-20T04:31:00.591Z,2.33
2023-05-20T04:41:36.596Z,2.33
2023-05-20T04:52:11.586Z,2.70
2023-05-20T05:02:47.860Z,3.00
2023-05-20T05:13:24.062Z,2.47
2023-05-20T05:23:58.878Z,2.67
2023-05-20T05:34:33.842Z,2.85
2023-05-20T05:45:09.436Z,2.60
2023-05-20T05:55:46.874Z,2.80
2023-05-20T06:06:22.305Z,2.70
2023-05-20T06:16:57.243Z,3.20
2023-05-20T06:27:32.575Z,2.72
2023-05-20T06:38:07.493Z,2.58
2023-05-20T06:48:42.754Z,3.08
2023-05-20T06:59:17.431Z,2.80
2023-05-20T07:09:53.563Z,3.05
2023-05-20T07:20:28.226Z,3.50
2023-05-20T07:31:04.504Z,2.88
2023-05-20T07:41:42.172Z,3.83
2023-05-20T07:52:17.064Z,3.40
2023-05-20T08:02:53.003Z,3.60
2023-05-20T08:13:36.432Z,3.50
2023-05-20T08:24:12.035Z,3.30
2023-05-20T08:34:49.616Z,4.35
2023-05-20T08:45:28.805Z,3.65
2023-05-20T08:56:11.851Z,4.07
2023-05-20T09:06:47.624Z,4.00
2023-05-20T09:17:23.941Z,3.50
2023-05-20T09:27:59.109Z,3.65
2023-05-20T09:38:39.205Z,3.97
2023-05-20T09:49:14.827Z,3.72
2023-05-20T09:59:51.720Z,3.58
2023-05-20T10:10:38.714Z,4.18
2023-05-20T10:21:24.690Z,5.22
2023-05-20T10:31:59.518Z,4.15
2023-05-20T10:42:34.520Z,4.28
2023-05-20T10:53:29.454Z,3.88
2023-05-20T11:04:09.062Z,4.03
2023-05-20T11:14:44.210Z,4.28
2023-05-20T11:25:20.178Z,4.15
2023-05-20T11:35:55.021Z,4.22
2023-05-20T11:46:29.984Z,4.43
2023-05-20T11:57:06.967Z,4.38
2023-05-20T12:07:42.054Z,4.25
2023-05-20T12:18:16.713Z,4.43
2023-05-20T12:28:51.683Z,4.55
2023-05-20T12:39:26.452Z,4.72
2023-05-20T12:50:01.981Z,4.97
2023-05-20T13:00:36.979Z,4.55
2023-05-20T13:11:11.878Z,4.50
2023-05-20T13:21:46.698Z,5.38
2023-05-20T13:32:21.073Z,4.80
2023-05-20T13:42:56.042Z,5.22
2023-05-20T13:53:30.917Z,4.75
2023-05-20T14:04:06.636Z,4.93
2023-05-20T14:14:41.010Z,5.30
2023-05-20T14:25:16.757Z,5.10
2023-05-20T14:35:51.492Z,5.25
2023-05-20T14:46:26.724Z,5.88
2023-05-20T14:57:02.403Z,5.78
2023-05-20T15:07:37.080Z,5.50
2023-05-20T15:18:12.154Z,6.30
2023-05-20T15:28:47.155Z,6.07
2023-05-20T15:39:21.848Z,6.45
2023-05-20T15:49:57.600Z,7.15
2023-05-20T16:00:32.247Z,6.35
2023-05-20T16:11:07.723Z,7.40
2023-05-20T16:21:43.485Z,6.75
2023-05-20T16:32:18.520Z,6.57
2023-05-20T16:42:53.240Z,7.50
2023-05-20T16:53:28.081Z,7.03
2023-05-20T17:04:03.357Z,7.10
2023-05-20T17:14:38.016Z,7.35
2023-05-20T17:25:12.996Z,7.75
2023-05-20T17:35:47.822Z,7.95
2023-05-20T17:46:22.780Z,7.43
2023-05-20T17:56:58.057Z,8.15
2023-05-20T18:07:33.544Z,7.72
2023-05-20T18:18:08.530Z,7.90
2023-05-20T18:28:43.576Z,8.18
2023-05-20T18:39:20.969Z,7.85
2023-05-20T18:49:56.067Z,9.25
2023-05-20T19:00:31.116Z,9.55
2023-05-20T19:11:05.739Z,10.00
2023-05-20T19:21:42.189Z,9.27
2023-05-20T19:32:17.047Z,9.93
2023-05-20T19:42:52.468Z,9.98
2023-05-20T19:53:27.040Z,10.75
2023-05-20T20:04:02.044Z,11.10
2023-05-20T20:14:36.979Z,11.50
2023-05-20T20:25:14.360Z,11.20
2023-05-20T20:35:49.380Z,12.18
2023-05-20T20:46:24.078Z,11.00
2023-05-20T20:57:00.137Z,11.18
2023-05-20T21:07:39.223Z,11.85
2023-05-20T21:18:18.249Z,12.65
2023-05-20T21:28:53.296Z,10.63
2023-05-20T21:39:27.646Z,12.00
2023-05-20T21:50:03.633Z,11.85
2023-05-20T22:00:38.243Z,12.95
2023-05-20T22:11:12.790Z,12.77
2023-05-20T22:21:50.705Z,11.70
2023-05-20T22:32:26.098Z,12.10
2023-05-20T22:43:00.689Z,12.52
2023-05-20T22:53:35.539Z,12.73
2023-05-20T23:04:10.328Z,12.55
2023-05-20T23:14:44.960Z,11.48
2023-05-20T23:25:19.755Z,13.07
2023-05-20T23:35:54.576Z,13.60
2023-05-20T23:46:29.261Z,12.77
2023-05-20T23:57:04.243Z,13.57
